createdAt,value
2022-07-31T00:00:19.611Z,39.70
2022-07-31T00:02:47.041Z,39.60
2022-07-31T00:05:14.536Z,39.50
2022-07-31T00:07:41.739Z,39.40
2022-07-31T00:10:09.797Z,39.40
2022-07-31T00:12:36.923Z,39.30
2022-07-31T00:15:10.261Z,39.30
2022-07-31T00:17:41.197Z,39.30
2022-07-31T00:20:10.271Z,39.30
2022-07-31T00:22:37.779Z,39.30
2022-07-31T00:25:05.244Z,39.40
2022-07-31T00:27:32.321Z,39.20
2022-07-31T00:29:59.270Z,39.00
2022-07-31T00:32:26.402Z,39.00
2022-07-31T00:34:53.451Z,39.10
2022-07-31T00:37:20.390Z,39.20
2022-07-31T00:39:47.381Z,39.20
2022-07-31T00:42:25.146Z,39.20
2022-07-31T00:44:52.865Z,39.10
2022-07-31T00:47:22.304Z,39.10
2022-07-31T00:49:53.184Z,39.00
2022-07-31T00:52:20.566Z,38.90
2022-07-31T00:54:47.664Z,38.90
2022-07-31T00:57:15.456Z,38.80
2022-07-31T00:59:43.839Z,38.70
2022-07-31T01:02:11.341Z,38.60
2022-07-31T01:04:38.348Z,38.60
2022-07-31T01:07:09.109Z,38.50
2022-07-31T01:09:36.220Z,38.40
2022-07-31T01:12:14.997Z,38.60
2022-07-31T01:15:00.027Z,38.70
2022-07-31T01:17:30.518Z,38.70
2022-07-31T01:19:58.000Z,38.80
2022-07-31T01:22:43.910Z,38.90
2022-07-31T01:25:29.572Z,38.90
2022-07-31T01:28:19.120Z,39.00
2022-07-31T01:34:18.271Z,39.00
2022-07-31T01:36:50.486Z,38.90
2022-07-31T01:39:18.716Z,38.90
2022-07-31T01:41:48.549Z,39.00
2022-07-31T01:44:17.899Z,39.00
2022-07-31T01:46:48.014Z,39.10
2022-07-31T01:49:19.277Z,39.10
2022-07-31T01:51:48.154Z,39.10
2022-07-31T01:54:18.520Z,39.10
2022-07-31T01:56:48.255Z,38.90
2022-07-31T01:59:20.269Z,38.90
2022-07-31T02:01:51.500Z,38.90
2022-07-31T02:04:20.823Z,38.70
2022-07-31T02:06:49.911Z,38.70
2022-07-31T02:09:20.340Z,38.70
2022-07-31T02:11:53.335Z,38.60
2022-07-31T02:14:23.017Z,38.50
2022-07-31T02:16:50.587Z,38.30
2022-07-31T02:19:19.374Z,38.30
2022-07-31T02:21:46.619Z,38.00
2022-07-31T02:24:14.132Z,38.10
2022-07-31T02:26:41.784Z,38.00
2022-07-31T02:29:19.437Z,38.10
2022-07-31T02:32:11.439Z,38.20
2022-07-31T02:34:38.222Z,38.30
2022-07-31T02:37:06.709Z,38.30
2022-07-31T02:39:36.474Z,38.40
2022-07-31T02:42:04.164Z,38.30
2022-07-31T02:44:35.044Z,38.30
2022-07-31T02:47:05.595Z,38.30
2022-07-31T02:49:36.108Z,38.40
2022-07-31T02:52:05.852Z,38.30
2022-07-31T02:54:36.722Z,38.10
2022-07-31T02:57:04.123Z,38.20
2022-07-31T02:59:31.283Z,38.10
2022-07-31T03:01:58.846Z,38.00
2022-07-31T03:04:25.840Z,38.10
2022-07-31T03:06:53.395Z,38.20
2022-07-31T03:09:20.433Z,38.20
2022-07-31T03:11:47.401Z,38.20
2022-07-31T03:14:15.331Z,38.30
2022-07-31T03:16:46.891Z,38.30
2022-07-31T03:19:14.107Z,38.20
2022-07-31T03:21:42.052Z,38.20
2022-07-31T03:24:12.089Z,38.10
2022-07-31T03:26:39.509Z,37.90
2022-07-31T03:29:06.461Z,38.00
2022-07-31T03:31:53.424Z,38.10
2022-07-31T03:34:20.362Z,38.20
2022-07-31T03:36:48.918Z,38.20
2022-07-31T03:39:16.504Z,38.20
2022-07-31T03:41:44.677Z,38.30
2022-07-31T03:44:12.050Z,38.30
2022-07-31T03:46:39.357Z,38.20
2022-07-31T03:49:07.981Z,38.30
2022-07-31T03:51:35.049Z,38.20
2022-07-31T03:54:02.429Z,38.30
2022-07-31T03:56:29.495Z,38.30
2022-07-31T03:58:56.978Z,38.40
2022-07-31T04:01:24.485Z,38.30
2022-07-31T04:03:59.279Z,38.10
2022-07-31T04:06:26.384Z,37.80
2022-07-31T04:08:53.614Z,37.80
2022-07-31T04:11:20.536Z,37.80
2022-07-31T04:13:47.820Z,37.90
2022-07-31T04:16:14.846Z,37.80
2022-07-31T04:18:43.104Z,37.80
2022-07-31T04:21:17.880Z,37.80
2022-07-31T04:23:49.481Z,37.70
2022-07-31T04:26:25.630Z,37.60
2022-07-31T04:28:53.472Z,37.80
2022-07-31T04:31:20.403Z,37.90
2022-07-31T04:33:49.541Z,37.80
2022-07-31T04:36:29.751Z,38.00
2022-07-31T04:39:01.075Z,38.00
2022-07-31T04:41:28.337Z,38.10
2022-07-31T04:43:55.432Z,38.30
2022-07-31T04:46:22.423Z,38.30
2022-07-31T04:48:49.465Z,38.40
2022-07-31T04:51:18.871Z,38.30
2022-07-31T04:53:46.995Z,38.30
2022-07-31T04:56:33.909Z,38.40
2022-07-31T04:59:02.514Z,38.70
2022-07-31T05:01:29.767Z,38.70
2022-07-31T05:03:56.980Z,38.50
2022-07-31T05:06:32.265Z,38.40
2022-07-31T05:08:59.322Z,38.20
2022-07-31T05:11:26.510Z,38.20
2022-07-31T05:13:59.092Z,38.40
2022-07-31T05:16:29.152Z,38.50
2022-07-31T05:18:56.591Z,38.70
2022-07-31T05:21:29.849Z,39.00
2022-07-31T05:23:58.231Z,39.50
2022-07-31T05:26:26.704Z,39.90
2022-07-31T05:28:58.397Z,40.10
2022-07-31T05:31:26.195Z,40.40
2022-07-31T05:33:53.193Z,40.60
2022-07-31T05:36:21.824Z,40.80
2022-07-31T05:38:49.275Z,40.70
2022-07-31T05:41:16.501Z,40.90
2022-07-31T05:43:43.812Z,40.90
2022-07-31T05:46:14.113Z,41.00
2022-07-31T05:48:41.650Z,41.30
2022-07-31T05:51:10.721Z,41.60
2022-07-31T05:53:38.407Z,41.80
2022-07-31T05:56:06.325Z,42.20
2022-07-31T05:58:34.312Z,42.20
2022-07-31T06:01:02.543Z,42.50
2022-07-31T06:03:29.892Z,42.70
2022-07-31T06:05:57.202Z,42.80
2022-07-31T06:08:25.373Z,42.90
2022-07-31T06:10:52.322Z,43.00
2022-07-31T06:13:23.630Z,43.00
2022-07-31T06:15:50.589Z,43.10
2022-07-31T06:18:17.747Z,43.10
2022-07-31T06:20:44.975Z,43.40
2022-07-31T06:23:19.978Z,43.50
2022-07-31T06:25:50.286Z,43.60
2022-07-31T06:28:18.221Z,43.90
2022-07-31T06:30:45.253Z,43.80
2022-07-31T06:33:17.252Z,43.80
2022-07-31T06:35:59.368Z,43.90
2022-07-31T06:38:26.657Z,44.20
2022-07-31T06:40:56.690Z,44.40
2022-07-31T06:43:23.781Z,44.60
2022-07-31T06:45:51.950Z,44.80
2022-07-31T06:48:19.768Z,44.90
2022-07-31T06:50:47.286Z,45.20
2022-07-31T06:53:14.947Z,45.10
2022-07-31T06:55:44.454Z,45.00
2022-07-31T06:58:12.075Z,45.20
2022-07-31T07:00:39.228Z,45.60
2022-07-31T07:03:06.494Z,45.80
2022-07-31T07:05:33.728Z,46.10
2022-07-31T07:08:00.675Z,46.00
2022-07-31T07:10:28.997Z,46.10
2022-07-31T07:12:58.918Z,46.10
2022-07-31T07:15:28.576Z,46.60
2022-07-31T07:17:57.022Z,46.80
2022-07-31T07:20:25.620Z,47.00
2022-07-31T07:22:53.062Z,47.30
2022-07-31T07:25:21.160Z,47.50
2022-07-31T07:27:48.434Z,47.50
2022-07-31T07:30:15.529Z,47.80
2022-07-31T07:32:45.909Z,47.90
2022-07-31T07:35:12.833Z,48.00
2022-07-31T07:37:41.479Z,48.30
2022-07-31T07:40:10.930Z,48.20
2022-07-31T07:42:38.179Z,48.30
2022-07-31T07:45:08.241Z,48.60
2022-07-31T07:48:05.069Z,48.70
2022-07-31T07:50:27.050Z,48.80
2022-07-31T07:52:57.258Z,49.30
2022-07-31T07:55:27.600Z,49.60
2022-07-31T07:58:10.015Z,49.70
2022-07-31T08:00:39.269Z,50.00
2022-07-31T08:03:49.068Z,50.20
2022-07-31T08:05:57.471Z,50.30
2022-07-31T08:08:25.265Z,50.70
2022-07-31T08:10:52.579Z,50.80
2022-07-31T08:13:21.703Z,51.10
2022-07-31T08:15:49.014Z,51.20
2022-07-31T08:18:20.374Z,51.40
2022-07-31T08:20:50.317Z,51.70
2022-07-31T08:23:20.517Z,51.60
2022-07-31T08:25:47.500Z,51.50
2022-07-31T08:28:24.101Z,51.20
2022-07-31T08:30:52.038Z,51.70
2022-07-31T08:33:18.958Z,51.60
2022-07-31T08:35:50.821Z,51.70
2022-07-31T08:38:19.758Z,51.80
2022-07-31T08:40:47.325Z,51.40
2022-07-31T08:44:02.254Z,51.60
2022-07-31T08:46:03.102Z,51.60
2022-07-31T08:48:33.136Z,51.70
2022-07-31T08:51:02.246Z,51.80
2022-07-31T08:53:33.185Z,52.00
2022-07-31T08:56:00.648Z,52.20
2022-07-31T08:58:27.761Z,52.40
2022-07-31T09:00:55.412Z,52.60
2022-07-31T09:03:23.501Z,52.50
2022-07-31T09:05:50.433Z,52.60
2022-07-31T09:08:17.699Z,52.60
2022-07-31T09:10:49.676Z,52.60
2022-07-31T09:13:19.222Z,52.40
2022-07-31T09:15:46.607Z,52.40
2022-07-31T09:18:22.148Z,51.70
2022-07-31T09:20:57.570Z,51.00
2022-07-31T09:23:26.779Z,50.90
2022-07-31T09:26:00.710Z,50.60
2022-07-31T09:28:42.685Z,50.70
2022-07-31T09:31:10.931Z,50.40
2022-07-31T09:33:45.522Z,50.30
2022-07-31T09:36:15.360Z,50.80
2022-07-31T09:38:45.942Z,50.90
2022-07-31T09:41:58.226Z,51.00
2022-07-31T09:44:09.555Z,51.00
2022-07-31T09:46:45.245Z,51.20
2022-07-31T09:49:12.492Z,51.40
2022-07-31T09:51:44.699Z,51.50
2022-07-31T09:54:26.309Z,51.60
2022-07-31T09:56:55.220Z,51.80
2022-07-31T09:59:22.258Z,52.30
2022-07-31T10:01:49.954Z,51.70
2022-07-31T10:04:21.063Z,52.30
2022-07-31T10:06:49.809Z,52.60
2022-07-31T10:09:20.149Z,52.60
2022-07-31T10:11:49.931Z,52.00
2022-07-31T10:14:29.751Z,51.90
2022-07-31T10:16:57.282Z,51.90
2022-07-31T10:19:27.703Z,52.20
2022-07-31T10:22:02.678Z,52.60
2022-07-31T10:24:32.441Z,53.10
2022-07-31T10:27:04.414Z,53.30
2022-07-31T10:29:39.566Z,53.70
2022-07-31T10:32:08.334Z,54.20
2022-07-31T10:34:36.091Z,54.30
2022-07-31T10:37:26.543Z,54.20
2022-07-31T10:40:19.319Z,54.30
2022-07-31T10:42:55.372Z,54.60
2022-07-31T10:45:23.899Z,54.70
2022-07-31T10:48:01.786Z,55.00
2022-07-31T10:50:31.810Z,55.20
2022-07-31T10:53:12.757Z,55.50
2022-07-31T10:55:40.072Z,55.10
2022-07-31T10:58:15.719Z,55.20
2022-07-31T11:00:43.629Z,54.80
2022-07-31T11:03:19.494Z,54.60
2022-07-31T11:06:01.096Z,54.30
2022-07-31T11:08:40.401Z,54.50
2022-07-31T11:11:07.381Z,54.60
2022-07-31T11:13:51.872Z,54.80
2022-07-31T11:16:19.894Z,55.00
2022-07-31T11:19:04.944Z,54.80
2022-07-31T11:21:39.598Z,54.40
2022-07-31T11:24:24.034Z,53.50
2022-07-31T11:26:52.765Z,52.60
2022-07-31T11:29:59.558Z,52.00
2022-07-31T11:32:26.935Z,51.60
2022-07-31T11:34:57.422Z,51.80
2022-07-31T11:37:45.942Z,51.70
2022-07-31T11:40:22.161Z,52.20
2022-07-31T11:43:04.992Z,52.50
2022-07-31T11:45:48.270Z,52.70
2022-07-31T11:48:18.976Z,53.20
2022-07-31T11:50:48.005Z,53.30
2022-07-31T11:53:15.243Z,53.60
2022-07-31T11:55:51.419Z,53.70
2022-07-31T11:58:20.895Z,53.80
2022-07-31T12:00:52.911Z,53.80
2022-07-31T12:03:23.519Z,53.70
2022-07-31T12:05:52.577Z,53.90
2022-07-31T12:08:20.830Z,54.20
2022-07-31T12:10:48.380Z,53.90
2022-07-31T12:13:17.629Z,54.10
2022-07-31T12:16:01.301Z,54.00
2022-07-31T12:18:29.526Z,53.70
2022-07-31T12:20:59.813Z,53.90
2022-07-31T12:23:41.388Z,53.70
2022-07-31T12:26:12.743Z,53.60
2022-07-31T12:28:40.552Z,53.70
2022-07-31T12:31:07.577Z,53.80
2022-07-31T12:33:42.953Z,53.90
2022-07-31T12:36:15.541Z,54.00
2022-07-31T12:38:45.281Z,54.00
2022-07-31T12:41:15.964Z,54.00
2022-07-31T12:43:52.009Z,53.50
2022-07-31T12:46:36.901Z,53.10
2022-07-31T12:49:05.596Z,52.80
2022-07-31T12:51:45.668Z,52.90
2022-07-31T12:54:15.615Z,52.90
2022-07-31T12:56:42.766Z,53.00
2022-07-31T12:59:12.230Z,53.00
2022-07-31T13:01:39.539Z,53.00
2022-07-31T13:04:07.710Z,53.10
2022-07-31T13:06:37.587Z,52.80
2022-07-31T13:09:04.763Z,52.80
2022-07-31T13:11:48.156Z,52.50
2022-07-31T13:14:19.516Z,52.60
2022-07-31T13:16:47.625Z,52.20
2022-07-31T13:19:15.554Z,52.20
2022-07-31T13:21:48.806Z,52.20
2022-07-31T13:24:18.324Z,52.20
2022-07-31T13:26:45.679Z,52.30
2022-07-31T13:29:13.112Z,52.10
2022-07-31T13:31:40.359Z,52.10
2022-07-31T13:34:07.933Z,52.10
2022-07-31T13:36:38.845Z,52.20
2022-07-31T13:39:09.498Z,52.10
2022-07-31T13:41:38.867Z,52.20
2022-07-31T13:44:06.259Z,52.10
2022-07-31T13:46:33.326Z,52.10
2022-07-31T13:49:02.696Z,52.00
2022-07-31T13:51:29.727Z,51.90
2022-07-31T13:53:57.028Z,51.70
2022-07-31T13:56:39.575Z,51.50
2022-07-31T13:59:14.245Z,51.60
2022-07-31T14:02:04.133Z,51.40
2022-07-31T14:04:32.155Z,51.50
2022-07-31T14:07:01.249Z,51.20
2022-07-31T14:09:30.553Z,51.20
2022-07-31T14:11:57.552Z,50.90
2022-07-31T14:14:24.615Z,50.90
2022-07-31T14:16:51.601Z,50.70
2022-07-31T14:19:18.608Z,50.60
2022-07-31T14:21:56.395Z,50.40
2022-07-31T14:24:27.468Z,50.50
2022-07-31T14:26:54.555Z,50.20
2022-07-31T14:29:21.562Z,50.20
2022-07-31T14:31:48.768Z,50.20
2022-07-31T14:34:15.757Z,49.90
2022-07-31T14:36:42.771Z,49.60
2022-07-31T14:39:09.709Z,49.60
2022-07-31T14:41:36.693Z,49.30
2022-07-31T14:44:03.811Z,49.40
2022-07-31T14:46:30.875Z,49.30
2022-07-31T14:49:00.280Z,48.90
2022-07-31T14:51:27.329Z,48.80
2022-07-31T14:53:54.270Z,48.80
2022-07-31T14:56:45.017Z,48.80
2022-07-31T14:59:08.305Z,48.50
2022-07-31T15:01:35.396Z,48.60
2022-07-31T15:04:02.589Z,48.50
2022-07-31T15:06:41.467Z,48.40
2022-07-31T15:09:19.613Z,48.60
2022-07-31T15:12:00.526Z,48.80
2022-07-31T15:14:31.833Z,48.60
2022-07-31T15:16:59.097Z,48.50
2022-07-31T15:19:26.124Z,48.50
2022-07-31T15:22:16.075Z,48.50
2022-07-31T15:24:46.306Z,48.10
2022-07-31T15:27:20.006Z,48.10
2022-07-31T15:30:04.456Z,47.80
2022-07-31T15:32:38.295Z,47.80
2022-07-31T15:35:07.647Z,47.40
2022-07-31T15:37:36.678Z,46.80
2022-07-31T15:40:15.084Z,46.40
2022-07-31T15:42:43.505Z,45.90
2022-07-31T15:45:12.520Z,45.90
2022-07-31T15:47:40.758Z,45.60
2022-07-31T15:50:10.215Z,45.30
2022-07-31T15:52:37.697Z,45.40
2022-07-31T15:55:05.520Z,45.20
2022-07-31T15:57:32.525Z,45.10
2022-07-31T16:00:00.958Z,44.80
2022-07-31T16:02:28.268Z,44.60
2022-07-31T16:04:57.548Z,44.70
2022-07-31T16:08:30.359Z,44.60
2022-07-31T16:10:17.856Z,44.50
2022-07-31T16:12:49.221Z,44.50
2022-07-31T16:15:18.892Z,44.60
2022-07-31T16:17:47.528Z,44.60
2022-07-31T16:20:25.327Z,44.50
2022-07-31T16:22:56.544Z,44.40
2022-07-31T16:25:24.697Z,44.20
2022-07-31T16:27:51.954Z,44.20
2022-07-31T16:30:18.950Z,44.30
2022-07-31T16:32:46.060Z,44.50
2022-07-31T16:35:13.368Z,44.40
2022-07-31T16:37:51.164Z,44.20
2022-07-31T16:40:29.110Z,43.90
2022-07-31T16:43:50.248Z,43.90
2022-07-31T16:45:51.021Z,43.70
2022-07-31T16:48:18.381Z,43.80
2022-07-31T16:50:48.316Z,43.90
2022-07-31T16:54:11.050Z,44.00
2022-07-31T16:56:11.172Z,43.60
2022-07-31T16:58:38.228Z,43.70
2022-07-31T17:01:05.401Z,43.70
2022-07-31T17:04:01.401Z,43.70
2022-07-31T17:06:39.892Z,43.70
2022-07-31T17:09:15.162Z,43.60
2022-07-31T17:11:46.380Z,43.60
2022-07-31T17:14:13.621Z,43.50
2022-07-31T17:16:46.415Z,43.50
2022-07-31T17:19:14.457Z,43.50
2022-07-31T17:21:44.484Z,43.40
2022-07-31T17:24:15.765Z,43.40
2022-07-31T17:26:44.232Z,43.40
2022-07-31T17:29:12.108Z,43.30
2022-07-31T17:31:39.260Z,43.30
2022-07-31T17:34:09.276Z,43.40
2022-07-31T17:36:36.925Z,43.40
2022-07-31T17:39:04.918Z,43.40
2022-07-31T17:41:32.250Z,43.20
2022-07-31T17:43:59.277Z,43.10
2022-07-31T17:47:06.899Z,43.00
2022-07-31T17:49:19.210Z,43.00
2022-07-31T17:51:57.892Z,43.10
2022-07-31T17:54:28.104Z,43.10
2022-07-31T17:56:55.115Z,43.00
2022-07-31T17:59:23.428Z,42.90
2022-07-31T18:01:53.291Z,42.80
2022-07-31T18:04:21.454Z,42.70
2022-07-31T18:06:54.474Z,42.70
2022-07-31T18:09:23.852Z,42.50
2022-07-31T18:11:52.445Z,42.50
2022-07-31T18:14:20.268Z,42.40
2022-07-31T18:16:47.766Z,42.30
2022-07-31T18:19:15.235Z,42.10
2022-07-31T18:21:43.377Z,42.00
2022-07-31T18:24:11.187Z,42.00
2022-07-31T18:26:38.129Z,42.00
2022-07-31T18:29:05.806Z,42.10
2022-07-31T18:31:35.211Z,42.00
2022-07-31T18:34:03.814Z,42.00
2022-07-31T18:36:31.346Z,41.90
2022-07-31T18:38:58.349Z,41.70
2022-07-31T18:41:25.325Z,41.70
2022-07-31T18:43:52.357Z,41.80
2022-07-31T18:46:20.283Z,41.70
2022-07-31T18:48:50.775Z,41.60
2022-07-31T18:51:23.199Z,41.60
2022-07-31T18:53:50.803Z,41.40
2022-07-31T18:56:17.905Z,41.30
2022-07-31T18:58:45.430Z,41.30
2022-07-31T19:01:12.413Z,41.30
2022-07-31T19:03:39.373Z,41.20
2022-07-31T19:06:06.573Z,41.20
2022-07-31T19:08:33.812Z,41.10
2022-07-31T19:11:00.949Z,41.10
2022-07-31T19:13:29.280Z,41.00
2022-07-31T19:15:56.321Z,41.00
2022-07-31T19:18:28.182Z,41.00
2022-07-31T19:21:22.879Z,41.00
2022-07-31T19:23:47.555Z,41.00
2022-07-31T19:26:15.045Z,41.10
2022-07-31T19:28:43.406Z,40.90
2022-07-31T19:31:11.641Z,40.90
2022-07-31T19:33:38.815Z,40.90
2022-07-31T19:36:06.491Z,40.90
2022-07-31T19:38:36.048Z,40.70
2022-07-31T19:41:03.706Z,40.70
2022-07-31T19:43:30.992Z,40.80
2022-07-31T19:46:09.606Z,40.80
2022-07-31T19:48:41.308Z,41.00
2022-07-31T19:51:10.331Z,41.20
2022-07-31T19:53:37.642Z,41.20
2022-07-31T19:56:07.727Z,41.30
2022-07-31T19:58:36.488Z,41.20
2022-07-31T20:01:06.837Z,41.30
2022-07-31T20:03:34.467Z,41.30
2022-07-31T20:06:03.516Z,41.40
2022-07-31T20:08:33.493Z,41.40
2022-07-31T20:11:03.908Z,41.20
2022-07-31T20:13:32.759Z,41.00
2022-07-31T20:16:00.215Z,41.00
2022-07-31T20:18:28.817Z,41.00
2022-07-31T20:21:07.098Z,40.90
2022-07-31T20:23:36.828Z,40.90
2022-07-31T20:26:04.534Z,41.00
2022-07-31T20:28:31.616Z,41.10
2022-07-31T20:30:58.632Z,41.10
2022-07-31T20:33:25.663Z,41.10
2022-07-31T20:35:52.840Z,41.10
2022-07-31T20:38:24.303Z,41.10
2022-07-31T20:40:55.444Z,41.10
2022-07-31T20:43:28.362Z,41.10
2022-07-31T20:45:59.883Z,41.10
2022-07-31T20:48:35.477Z,41.10
2022-07-31T20:51:05.905Z,41.10
2022-07-31T20:53:33.001Z,41.10
2022-07-31T20:56:00.056Z,41.00
2022-07-31T20:58:28.443Z,41.00
2022-07-31T21:00:55.508Z,40.90
2022-07-31T21:03:22.764Z,40.90
2022-07-31T21:05:49.955Z,41.00
2022-07-31T21:08:17.484Z,41.00
2022-07-31T21:10:45.223Z,40.90
2022-07-31T21:13:12.816Z,41.00
2022-07-31T21:15:42.282Z,40.90
2022-07-31T21:18:17.233Z,40.90
2022-07-31T21:20:51.774Z,40.90
2022-07-31T21:23:24.089Z,40.90
2022-07-31T21:25:56.890Z,40.90
2022-07-31T21:28:25.697Z,40.90
2022-07-31T21:30:56.219Z,40.90
2022-07-31T21:33:25.753Z,40.80
2022-07-31T21:35:54.080Z,40.80
2022-07-31T21:38:21.759Z,40.70
2022-07-31T21:40:49.470Z,40.70
2022-07-31T21:43:22.344Z,40.70
2022-07-31T21:45:57.630Z,40.70
2022-07-31T21:48:30.195Z,40.70
2022-07-31T21:50:57.636Z,40.80
2022-07-31T21:53:25.092Z,40.80
2022-07-31T21:55:53.279Z,40.90
2022-07-31T21:58:20.415Z,40.90
2022-07-31T22:00:47.624Z,40.90
2022-07-31T22:03:14.781Z,40.90
2022-07-31T22:06:00.695Z,40.90
2022-07-31T22:08:27.677Z,40.90
2022-07-31T22:10:54.999Z,40.90
2022-07-31T22:13:21.960Z,41.00
2022-07-31T22:15:58.228Z,41.10
2022-07-31T22:18:32.471Z,41.10
2022-07-31T22:21:01.099Z,41.10
2022-07-31T22:23:28.782Z,41.10
2022-07-31T22:25:56.423Z,41.20
2022-07-31T22:28:27.941Z,41.10
2022-07-31T22:30:55.761Z,41.20
2022-07-31T22:33:23.501Z,41.20
2022-07-31T22:35:58.374Z,41.20
2022-07-31T22:38:29.453Z,41.20
2022-07-31T22:40:57.341Z,41.20
2022-07-31T22:44:11.379Z,41.20
2022-07-31T22:46:14.679Z,41.20
2022-07-31T22:48:41.817Z,41.30
2022-07-31T22:51:10.657Z,41.30
2022-07-31T22:53:41.611Z,41.30
2022-07-31T22:56:08.610Z,41.30
2022-07-31T22:58:35.610Z,41.30
2022-07-31T23:01:02.670Z,41.30
2022-07-31T23:03:29.609Z,41.30
2022-07-31T23:06:27.985Z,41.30
2022-07-31T23:08:43.569Z,41.30
2022-07-31T23:11:10.570Z,41.30
2022-07-31T23:13:38.183Z,41.30
2022-07-31T23:16:05.951Z,41.20
2022-07-31T23:18:32.904Z,41.10
2022-07-31T23:21:00.211Z,41.00
2022-07-31T23:23:27.162Z,40.90
2022-07-31T23:25:54.141Z,40.80
2022-07-31T23:28:21.164Z,40.60
2022-07-31T23:30:48.134Z,40.60
2022-07-31T23:33:16.998Z,40.50
2022-07-31T23:35:44.318Z,40.50
2022-07-31T23:38:11.347Z,40.50
2022-07-31T23:40:38.524Z,40.50
2022-07-31T23:43:05.608Z,40.40
2022-07-31T23:45:32.667Z,40.30
2022-07-31T23:47:59.589Z,40.40
2022-07-31T23:50:27.036Z,40.60
2022-07-31T23:52:54.059Z,40.70
2022-07-31T23:55:21.814Z,40.70
2022-07-31T23:57:51.201Z,41.00
